.
WxDataArchive / Data Records for 2013-10-26
2013-10-25 October 2013 2013-10-27

Data Records for Saturday, 26 October 2013

Time	Temp	Chill	HIndex	Humid	Dewpt	 Wind 	HiWind	WindDir	Rain 	Barom 
-----	----	-----	------	-----	-----	------	------	-------	-----	----- 
00:00	39.3	39.3	39.3	57	25.4	0	6	225	0.00	30.173 
00:05	39.2	39.2	39.2	57	25.3	0	2	225	0.00	30.173 
00:10	39.2	39.2	39.2	56	24.8	1	3	225	0.00	30.173 
00:15	39.3	39.3	39.3	56	24.9	1	7	248	0.00	30.165 
00:20	39.3	39.3	39.3	56	24.9	1	4	248	0.00	30.165 
00:25	39.2	39.2	39.2	57	25.3	0	3	248	0.00	30.165 
00:30	39.2	39.2	39.2	56	24.8	1	5	270	0.00	30.162 
00:35	39.2	39.2	39.2	57	25.3	0	4	270	0.00	30.162 
00:40	39.2	39.2	39.2	56	24.8	1	4	248	0.00	30.162 
00:45	39.2	39.2	39.2	57	25.3	1	4	248	0.00	30.154 
00:50	39.1	39.1	39.1	57	25.2	1	3	270	0.00	30.154 
00:55	39.1	39.1	39.1	57	25.2	1	4	248	0.00	30.154 
01:00	39.1	39.1	39.1	57	25.2	1	5	270	0.00	30.147 
01:05	38.9	38.9	38.9	57	25.0	1	3	225	0.00	30.147 
01:10	38.9	38.9	38.9	57	25.0	1	3	248	0.00	30.147 
01:15	38.9	38.9	38.9	57	25.0	1	4	248	0.00	30.141 
01:20	39.1	39.1	39.1	58	25.6	0	3	248	0.00	30.141 
01:25	39.1	39.1	39.1	58	25.6	1	4	248	0.00	30.141 
01:30	39.1	39.1	39.1	57	25.2	1	5	248	0.00	30.139 
01:35	39.2	39.2	39.2	57	25.3	1	5	270	0.00	30.139 
01:40	39.3	39.3	39.3	57	25.4	1	5	270	0.00	30.139 
01:45	39.3	39.3	39.3	56	24.9	1	5	248	0.00	30.133 
01:50	39.3	39.3	39.3	57	25.4	0	4	270	0.00	30.133 
01:55	39.3	39.3	39.3	56	24.9	1	5	270	0.00	30.133 
02:00	39.3	39.3	39.3	56	24.9	1	5	248	0.00	30.130 
02:05	39.3	39.3	39.3	56	24.9	1	4	248	0.00	30.130 
02:10	39.2	39.2	39.2	56	24.8	1	4	248	0.00	30.130 
02:15	39.2	39.2	39.2	56	24.8	1	4	248	0.00	30.116 
02:20	39.1	39.1	39.1	57	25.2	1	4	248	0.00	30.116 
02:25	38.9	38.9	38.9	57	25.0	1	3	270	0.00	30.116 
02:30	38.9	38.9	38.9	57	25.0	1	3	270	0.00	30.106 
02:35	38.9	38.9	38.9	57	25.0	1	6	270	0.00	30.106 
02:40	38.8	38.8	38.8	57	24.9	1	3	270	0.00	30.106 
02:45	38.6	38.6	38.6	58	25.1	1	3	0	0.00	30.099 
02:50	38.5	38.5	38.5	58	25.0	1	6	248	0.00	30.099 
02:55	38.5	38.5	38.5	58	25.0	1	4	248	0.00	30.099 
03:00	38.3	38.3	38.3	58	24.8	1	3	248	0.00	30.096 
03:05	38.3	38.3	38.3	58	24.8	1	4	248	0.00	30.096 
03:10	38.3	38.3	38.3	58	24.8	1	4	225	0.00	30.096 
03:15	38.3	38.3	38.3	58	24.8	1	4	248	0.00	30.084 
03:20	38.5	38.5	38.5	58	25.0	0	5	225	0.00	30.084 
03:25	38.5	38.5	38.5	58	25.0	1	7	270	0.00	30.084 
03:30	38.6	38.6	38.6	57	24.7	1	5	248	0.00	30.080 
03:35	38.6	38.6	38.6	58	25.1	0	5	248	0.00	30.080 
03:40	38.8	38.8	38.8	58	25.3	1	7	248	0.00	30.080 
03:45	38.8	38.8	38.8	57	24.9	1	3	270	0.00	30.074 
03:50	38.9	38.9	38.9	57	25.0	1	4	248	0.00	30.074 
03:55	38.9	38.9	38.9	57	25.0	1	3	248	0.00	30.074 
04:00	39.1	39.1	39.1	57	25.2	1	4	248	0.00	30.062 
04:05	39.1	39.1	39.1	56	24.7	2	5	270	0.00	30.062 
04:10	39.1	39.1	39.1	56	24.7	1	4	248	0.00	30.062 
04:15	39.1	39.1	39.1	56	24.7	1	5	248	0.00	30.060 
04:20	39.2	39.2	39.2	56	24.8	1	9	248	0.00	30.060 
04:25	39.1	39.1	39.1	56	24.7	1	4	248	0.00	30.060 
04:30	39.1	39.1	39.1	56	24.7	1	4	292	0.00	30.053 
04:35	38.9	38.9	38.9	57	25.0	1	7	270	0.00	30.053 
04:40	38.8	38.8	38.8	57	24.9	1	3	292	0.00	30.053 
04:45	38.8	38.8	38.8	57	24.9	1	7	270	0.00	30.050 
04:50	38.6	38.6	38.6	58	25.1	1	4	248	0.00	30.050 
04:55	38.6	38.6	38.6	58	25.1	0	3	248	0.00	30.050 
05:00	38.6	38.6	38.6	57	24.7	2	6	248	0.00	30.041 
05:05	38.5	38.5	38.5	58	25.0	1	5	270	0.00	30.041 
05:10	38.3	38.3	38.3	58	24.8	1	4	270	0.00	30.041 
05:15	38.2	38.2	38.2	58	24.7	2	4	248	0.00	30.035 
05:20	38.2	38.2	38.2	59	25.2	1	4	270	0.00	30.035 
05:25	38.2	38.2	38.2	58	24.7	1	5	248	0.00	30.035 
05:30	38.2	38.2	38.2	58	24.7	2	10	248	0.00	30.029 
05:35	38.3	38.3	38.3	58	24.8	1	10	270	0.00	30.029 
05:40	38.5	38.5	38.5	58	25.0	1	6	292	0.00	30.029 
05:45	38.5	38.5	38.5	58	25.0	1	7	270	0.00	30.028 
05:50	38.6	38.6	38.6	58	25.1	1	5	270	0.00	30.028 
05:55	38.8	38.8	38.8	57	24.9	2	9	270	0.00	30.028 
06:00	38.9	38.9	38.9	57	25.0	1	4	248	0.00	30.022 
06:05	38.9	38.9	38.9	57	25.0	1	3	270	0.00	30.022 
06:10	39.1	39.1	39.1	57	25.2	2	6	248	0.00	30.022 
06:15	39.1	39.1	39.1	57	25.2	1	6	248	0.00	30.018 
06:20	39.1	39.1	39.1	57	25.2	1	5	225	0.00	30.018 
06:25	39.1	39.1	39.1	57	25.2	2	5	248	0.00	30.018 
06:30	39.2	39.2	39.2	57	25.3	1	6	270	0.00	30.009 
06:35	39.2	39.2	39.2	57	25.3	1	6	270	0.00	30.009 
06:40	39.3	39.3	39.3	57	25.4	2	9	248	0.00	30.009 
06:45	39.3	39.3	39.3	57	25.4	1	4	270	0.00	30.005 
06:50	39.3	39.3	39.3	57	25.4	1	5	248	0.00	30.005 
06:55	39.3	39.3	39.3	57	25.4	1	5	270	0.00	30.005 
07:00	39.3	39.3	39.3	57	25.4	1	4	248	0.00	29.999 
07:05	39.3	39.3	39.3	58	25.8	1	4	248	0.00	29.999 
07:10	39.2	39.2	39.2	58	25.7	0	4	248	0.00	29.999 
07:15	39.2	39.2	39.2	58	25.7	1	6	248	0.00	29.993 
07:20	39.3	39.3	39.3	58	25.8	2	5	248	0.00	29.993 
07:25	39.3	39.3	39.3	58	25.8	2	6	248	0.00	29.993 
07:30	39.3	39.3	39.3	58	25.8	1	4	248	0.00	29.980 
07:35	39.3	39.3	39.3	58	25.8	1	4	248	0.00	29.980 
07:40	39.5	39.5	39.5	58	26.0	1	5	248	0.00	29.980 
07:45	39.5	39.5	39.5	58	26.0	2	9	248	0.00	29.966 
07:50	39.5	39.5	39.5	58	26.0	1	5	248	0.00	29.966 
07:55	39.5	39.5	39.5	58	26.0	2	7	248	0.00	29.966 
08:00	39.6	39.6	39.6	58	26.1	1	5	248	0.00	29.961 
08:05	39.8	39.8	39.8	57	25.8	2	6	248	0.00	29.961 
08:10	39.8	39.8	39.8	57	25.8	2	6	248	0.00	29.961 
08:15	39.9	39.9	39.9	57	25.9	1	5	270	0.00	29.955 
08:20	39.9	39.9	39.9	57	25.9	2	9	248	0.00	29.955 
08:25	39.9	39.9	39.9	57	25.9	1	6	248	0.00	29.955 
08:30	39.9	39.9	39.9	57	25.9	1	4	248	0.00	29.954 
08:35	39.9	39.9	39.9	57	25.9	1	5	248	0.00	29.954 
08:40	40.1	40.1	40.1	57	26.1	1	4	248	0.00	29.954 
08:45	40.1	40.1	40.1	57	26.1	2	6	248	0.00	29.950 
08:50	40.1	40.1	40.1	57	26.1	1	6	270	0.00	29.950 
08:55	40.2	40.2	40.2	57	26.2	2	6	248	0.00	29.950 
09:00	40.2	40.2	40.2	57	26.2	2	6	248	0.00	29.947 
09:05	40.3	40.3	40.3	56	25.9	1	3	248	0.00	29.947 
09:10	40.5	40.5	40.5	56	26.1	1	4	270	0.00	29.947 
09:15	40.5	40.5	40.5	56	26.1	2	5	270	0.00	29.943 
09:20	40.6	40.6	40.6	56	26.1	2	8	270	0.00	29.943 
09:25	40.8	40.8	40.8	56	26.3	2	7	270	0.00	29.943 
09:30	40.8	40.8	40.8	55	25.9	2	6	248	0.00	29.938 
09:35	40.8	40.8	40.8	56	26.3	2	6	248	0.00	29.938 
09:40	40.8	40.8	40.8	56	26.3	1	5	248	0.00	29.938 
09:45	40.9	40.9	40.9	56	26.4	1	4	248	0.00	29.932 
09:50	40.9	40.9	40.9	56	26.4	1	4	248	0.00	29.932 
09:55	40.9	40.9	40.9	56	26.4	2	7	248	0.00	29.932 
10:00	41.1	41.1	41.1	56	26.6	1	6	270	0.00	29.932 
10:05	41.1	41.1	41.1	56	26.6	1	5	292	0.00	29.932 
10:10	41.2	41.2	41.2	56	26.7	1	5	248	0.00	29.932 
10:15	41.3	41.3	41.3	56	26.8	1	6	248	0.00	29.929 
10:20	41.5	41.5	41.5	56	27.0	1	5	270	0.00	29.929 
10:25	41.6	41.6	41.6	57	27.5	1	5	248	0.00	29.929 
10:30	41.8	41.8	41.8	56	27.3	1	6	248	0.00	29.914 
10:35	42.1	42.1	42.1	57	28.0	1	4	248	0.00	29.914 
10:40	42.3	42.3	42.3	57	28.2	1	5	248	0.00	29.914 
10:45	42.6	42.6	42.6	56	28.0	2	9	248	0.00	29.896 
10:50	42.8	42.8	42.8	55	27.8	2	7	270	0.00	29.896 
10:55	43.1	43.1	43.1	55	28.0	2	8	270	0.00	29.896 
11:00	43.2	43.2	43.2	55	28.1	2	12	248	0.00	29.879 
11:05	43.1	43.1	43.1	55	28.0	3	11	248	0.00	29.879 
11:10	43.1	43.1	43.1	55	28.0	3	6	270	0.00	29.879 
11:15	43.1	43.1	43.1	55	28.0	2	5	270	0.00	29.884 
11:20	43.2	43.2	43.2	56	28.6	1	10	248	0.00	29.884 
11:25	43.3	43.3	43.3	55	28.2	1	5	270	0.00	29.884 
11:30	43.6	43.6	43.6	56	29.0	1	4	248	0.00	29.887 
11:35	44.1	44.1	44.1	55	29.0	1	6	292	0.00	29.887 
11:40	44.5	44.5	44.5	55	29.3	2	6	270	0.00	29.887 
11:45	44.9	44.9	44.9	54	29.3	2	10	248	0.00	29.892 
11:50	45.5	45.5	45.5	54	29.8	2	6	248	0.00	29.892 
11:55	45.5	45.5	45.5	53	29.4	2	7	248	0.00	29.892 
12:00	45.7	45.7	45.7	54	30.0	2	6	292	0.00	29.885 
12:05	46.0	46.0	46.0	54	30.3	1	4	225	0.00	29.885 
12:10	46.2	46.2	46.2	52	29.6	3	9	270	0.00	29.885 
12:15	46.7	46.7	46.7	53	30.5	2	7	248	0.00	29.880 
12:20	46.5	46.5	46.5	52	29.8	3	6	248	0.00	29.880 
12:25	46.5	46.5	46.5	53	30.3	2	7	248	0.00	29.880 
12:30	46.5	46.5	46.5	53	30.3	2	6	248	0.00	29.875 
12:35	46.8	46.8	46.8	54	31.0	2	6	270	0.00	29.875 
12:40	47.3	47.3	47.3	52	30.6	2	5	270	0.00	29.875 
12:45	47.4	47.4	47.4	53	31.1	3	9	270	0.00	29.869 
12:50	47.4	47.4	47.4	53	31.1	2	8	270	0.00	29.869 
12:55	47.4	47.4	47.4	52	30.7	2	5	270	0.00	29.869 
13:00	47.1	47.1	47.1	54	31.3	1	3	248	0.00	29.866 
13:05	47.0	47.0	47.0	54	31.2	2	5	270	0.00	29.866 
13:10	47.0	47.0	47.0	54	31.2	1	4	248	0.00	29.866 
13:15	47.1	47.1	47.1	54	31.3	2	6	270	0.00	29.863 
13:20	47.3	47.3	47.3	55	32.0	2	5	270	0.00	29.863 
13:25	47.3	47.3	47.3	54	31.5	2	5	270	0.00	29.863 
13:30	47.4	47.4	47.4	54	31.6	2	6	270	0.00	29.862 
13:35	47.4	47.4	47.4	55	32.1	1	4	270	0.00	29.862 
13:40	47.6	47.6	47.6	54	31.8	2	5	270	0.00	29.862 
13:45	47.6	47.6	47.6	55	32.2	2	7	270	0.00	29.860 
13:50	47.6	47.6	47.6	55	32.2	1	6	270	0.00	29.860 
13:55	47.7	47.7	47.7	55	32.3	1	4	270	0.00	29.860 
14:00	48.0	48.0	48.0	54	32.2	2	6	270	0.00	29.851 
14:05	48.2	48.2	48.2	54	32.3	2	10	270	0.00	29.851 
14:10	48.8	48.8	48.8	55	33.4	2	6	270	0.00	29.851 
14:15	49.5	49.5	49.5	55	34.0	1	4	270	0.00	29.845 
14:20	50.1	50.1	50.1	52	33.2	3	7	270	0.00	29.845 
14:25	50.4	50.4	50.4	52	33.4	3	7	270	0.00	29.845 
14:30	50.4	50.4	50.4	53	33.9	2	7	248	0.00	29.846 
14:35	50.8	50.8	50.8	51	33.3	3	7	270	0.00	29.846 
14:40	50.8	50.8	50.8	51	33.3	3	7	248	0.00	29.846 
14:45	50.8	50.8	50.8	52	33.8	1	5	270	0.00	29.843 
14:50	50.5	50.5	50.5	52	33.5	2	7	270	0.00	29.843 
14:55	50.5	50.5	50.5	53	34.0	2	7	270	0.00	29.843 
15:00	51.0	51.0	51.0	53	34.5	2	6	270	0.00	29.843 
15:05	51.4	51.4	51.4	52	34.4	2	5	270	0.00	29.843 
15:10	52.0	52.0	52.0	52	34.9	1	5	270	0.00	29.843 
15:15	52.3	52.3	52.3	51	34.7	2	7	248	0.00	29.841 
15:20	52.8	52.8	52.8	51	35.2	1	2	292	0.00	29.841 
15:25	52.5	52.5	52.5	51	34.9	1	4	270	0.00	29.841 
15:30	51.7	51.7	51.7	51	34.2	1	4	270	0.00	29.845 
15:35	51.4	51.4	51.4	53	34.8	0	2	270	0.00	29.845 
15:40	51.1	51.1	51.1	53	34.6	1	4	248	0.00	29.845 
15:45	51.4	51.4	51.4	53	34.8	1	4	248	0.00	29.846 
15:50	51.6	51.6	51.6	53	35.0	1	5	270	0.00	29.846 
15:55	52.0	52.0	52.0	52	34.9	1	3	248	0.00	29.846 
16:00	52.2	52.2	52.2	53	35.6	1	3	248	0.00	29.849 
16:05	52.0	52.0	52.0	53	35.4	1	3	270	0.00	29.849 
16:10	52.0	52.0	52.0	53	35.4	1	4	248	0.00	29.849 
16:15	51.7	51.7	51.7	54	35.6	0	2	248	0.00	29.857 
16:20	51.6	51.6	51.6	54	35.5	1	3	248	0.00	29.857 
16:25	51.4	51.4	51.4	54	35.3	0	2	248	0.00	29.857 
16:30	51.4	51.4	51.4	54	35.3	1	4	248	0.00	29.860 
16:35	51.3	51.3	51.3	55	35.7	0	1	248	0.00	29.860 
16:40	51.3	51.3	51.3	55	35.7	0	3	248	0.00	29.860 
16:45	51.4	51.4	51.4	56	36.2	0	1	248	0.00	29.863 
16:50	51.6	51.6	51.6	57	36.9	0	1	248	0.00	29.863 
16:55	52.0	52.0	52.0	56	36.8	0	1	248	0.00	29.863 
17:00	52.5	52.5	52.5	55	36.8	0	2	248	0.00	29.868 
17:05	52.8	52.8	52.8	51	35.2	3	9	315	0.00	29.868 
17:10	52.3	52.3	52.3	52	35.2	3	6	270	0.00	29.868 
17:15	52.2	52.2	52.2	53	35.6	2	6	292	0.00	29.878 
17:20	51.9	51.9	51.9	54	35.8	2	5	292	0.00	29.878 
17:25	51.7	51.7	51.7	55	36.1	2	6	292	0.00	29.878 
17:30	51.4	51.4	51.4	55	35.8	2	6	315	0.00	29.888 
17:35	51.3	51.3	51.3	55	35.7	2	6	315	0.00	29.888 
17:40	51.3	51.3	51.3	56	36.1	2	5	270	0.00	29.888 
17:45	51.1	51.1	51.1	56	36.0	2	5	292	0.00	29.889 
17:50	51.1	51.1	51.1	56	36.0	1	4	292	0.00	29.889 
17:55	51.0	51.0	51.0	57	36.3	1	3	292	0.00	29.889 
18:00	50.8	50.8	50.8	57	36.1	1	2	292	0.00	29.893 
18:05	50.7	50.7	50.7	56	35.6	2	5	292	0.00	29.893 
18:10	50.7	50.7	50.7	55	35.1	2	5	270	0.00	29.893 
18:15	50.7	50.7	50.7	55	35.1	2	5	292	0.00	29.902 
18:20	50.5	50.5	50.5	55	34.9	1	4	315	0.00	29.902 
18:25	50.4	50.4	50.4	55	34.8	1	3	315	0.00	29.902 
18:30	50.4	50.4	50.4	55	34.8	1	4	315	0.00	29.911 
18:35	50.4	50.4	50.4	54	34.4	2	6	292	0.00	29.911 
18:40	50.4	50.4	50.4	53	33.9	2	6	270	0.00	29.911 
18:45	50.4	50.4	50.4	54	34.4	2	4	292	0.00	29.922 
18:50	50.4	50.4	50.4	54	34.4	3	9	315	0.00	29.922 
18:55	50.4	50.4	50.4	54	34.4	3	7	315	0.00	29.922 
19:00	50.1	50.1	50.1	56	35.0	4	9	292	0.00	29.939 
19:05	49.8	49.8	49.8	57	35.2	3	6	315	0.00	29.939 
19:10	49.5	49.5	49.5	58	35.3	3	7	292	0.00	29.939 
19:15	49.2	49.2	49.2	59	35.5	1	3	292	0.00	29.948 
19:20	48.9	48.9	48.9	59	35.2	2	7	292	0.00	29.948 
19:25	48.8	48.8	48.8	60	35.5	2	5	315	0.00	29.948 
19:30	48.6	48.6	48.6	60	35.3	1	3	292	0.00	29.956 
19:35	48.5	48.5	48.5	61	35.7	2	4	292	0.00	29.956 
19:40	48.3	48.3	48.3	62	35.9	1	5	270	0.00	29.956 
19:45	48.2	48.2	48.2	62	35.8	1	3	292	0.00	29.967 
19:50	48.0	48.0	48.0	63	36.0	1	3	292	0.00	29.967 
19:55	48.0	48.0	48.0	63	36.0	1	4	270	0.00	29.967 
20:00	47.9	47.9	47.9	63	35.9	1	4	315	0.00	29.973 
20:05	47.7	47.7	47.7	64	36.1	0	2	315	0.00	29.973 
20:10	47.6	47.6	47.6	64	36.0	1	3	315	0.00	29.973 
20:15	47.4	47.4	47.4	64	35.8	1	3	315	0.00	29.986 
20:20	47.3	47.3	47.3	65	36.1	1	3	270	0.00	29.986 
20:25	47.3	47.3	47.3	65	36.1	0	2	270	0.00	29.986 
20:30	47.1	47.1	47.1	65	35.9	0	1	270	0.00	29.988 
20:35	47.0	47.0	47.0	66	36.2	0	3	270	0.00	29.988 
20:40	46.7	46.7	46.7	67	36.3	0	1	270	0.00	29.988 
20:45	46.4	46.4	46.4	68	36.4	0	1	270	0.00	29.991 
20:50	46.1	46.1	46.1	68	36.1	0	0	---	0.00	29.991 
20:55	45.8	45.8	45.8	69	36.2	0	0	---	0.00	29.991 
21:00	45.4	45.4	45.4	70	36.2	0	0	---	0.00	29.996 
21:05	44.9	44.9	44.9	71	36.1	0	0	---	0.00	29.996 
21:10	44.5	44.5	44.5	72	36.0	0	0	---	0.00	29.996 
21:15	44.1	44.1	44.1	73	36.0	0	0	---	0.00	30.003 
21:20	43.5	43.5	43.5	74	35.8	0	0	---	0.00	30.003 
21:25	43.1	43.1	43.1	75	35.7	0	0	---	0.00	30.003 
21:30	42.6	42.6	42.6	76	35.6	0	0	---	0.00	30.006 
21:35	42.2	42.2	42.2	77	35.5	0	0	---	0.00	30.006 
21:40	41.8	41.8	41.8	78	35.5	0	0	---	0.00	30.006 
21:45	41.8	41.8	41.8	79	35.8	0	1	270	0.00	30.018 
21:50	41.9	41.9	41.9	80	36.2	0	1	270	0.00	30.018 
21:55	41.9	41.9	41.9	80	36.2	0	0	---	0.00	30.018 
22:00	41.9	41.9	41.9	80	36.2	0	0	---	0.00	30.022 
22:05	41.6	41.6	41.6	80	35.9	0	0	---	0.00	30.022 
22:10	41.5	41.5	41.5	80	35.8	0	0	---	0.00	30.022 
22:15	41.2	41.2	41.2	81	35.8	0	0	---	0.00	30.022 
22:20	41.2	41.2	41.2	81	35.8	0	0	---	0.00	30.022 
22:25	41.1	41.1	41.1	81	35.7	0	0	---	0.00	30.022 
22:30	40.9	40.9	40.9	82	35.8	0	0	---	0.00	30.028 
22:35	40.8	40.8	40.8	82	35.7	0	0	---	0.00	30.028 
22:40	40.6	40.6	40.6	82	35.5	0	0	---	0.00	30.028 
22:45	40.3	40.3	40.3	82	35.2	0	0	---	0.00	30.035 
22:50	40.1	40.1	40.1	82	35.1	0	0	---	0.00	30.035 
22:55	39.9	39.9	39.9	83	35.2	0	0	---	0.00	30.035 
23:00	39.6	39.6	39.6	83	34.9	0	0	---	0.00	30.040 
23:05	39.3	39.3	39.3	83	34.6	0	0	---	0.00	30.040 
23:10	39.1	39.1	39.1	84	34.7	0	0	---	0.00	30.040 
23:15	38.8	38.8	38.8	84	34.4	0	0	---	0.00	30.039 
23:20	38.5	38.5	38.5	84	34.1	0	0	---	0.00	30.039 
23:25	38.3	38.3	38.3	85	34.2	0	0	---	0.00	30.039 
23:30	38.2	38.2	38.2	85	34.1	0	0	---	0.00	30.043 
23:35	37.9	37.9	37.9	85	33.8	0	0	---	0.00	30.043 
23:40	37.8	37.8	37.8	85	33.7	0	0	---	0.00	30.043 
23:45	37.5	37.5	37.5	86	33.7	0	0	---	0.00	30.048 
23:50	37.2	37.2	37.2	86	33.4	0	0	---	0.00	30.048 
23:55	37.0	37.0	37.0	86	33.2	0	0	---	0.00	30.048 

CoCoRaHS
IN-AL-39
A2 Web Hosting
Creative Commons License
GoDaddy
search engine by freefind advanced

loaded 2018-11-13 02:06:58 • last modified 2010-11-18 10:43:29
Privacy PolicyDisclaimer
• wx.awcolley.com is powered by PmWiki v.2002016 •
• all content (unless otherwise noted) © 2018 A W Colley